Weather at Shark Bay Airport

Public forecast

Using degrees Celsius for public forecast. Weather courtesy of forecast.io.

Closest aviation weather report (METAR) to Shark Bay Airport

Report is more than 6 hours old.

Closest report is Carnarvon Airport, 61.3 nm (113.5 km) N. Retrieved 2022/08/17 15:30 UTC (1 month ago):

YCAR 171530Z AUTO 17016G26KT 9999 // SCT032 SCT037 OVC046 17/12 Q1022

Closest aviation forecast (TAF) to Shark Bay Airport

Forecast is more than 12 hours old.

Closest forecast is Geraldton Airport, 184.2 nm (341.1 km) SSE. Retrieved 2022/09/17 18:00 UTC (8 days ago):

TAF YGEL 171706Z 1718/1812 12005KT 9999 FEW010 FM171900 VRB03KT CAVOK FM180300 21012KT 9999 SCT040 FM181000 22006KT 9999 FEW020 SCT030 PROB30 1718/1800 0200 FG BKN001